Time;durP1;ratioP1;P1;durP2;ratioP2;P2;SDS_P1;SDS_P2;PMS_P1;PMS_P2;Temp;Humidity;BMP_temperature;BMP_pressure;BME280_temperature;BME280_humidity;BME280_pressure;Samples;Min_cycle;Max_cycle;Signal;HPM_P1;HPM_P2
2023/09/11 00:00:35;;;;;;;1.70;1.23;;;;;;;-143.84;68.04;45094.78;5048539;28;21048;-55
2023/09/11 00:03:02;;;;;;;1.60;1.30;;;;;;;-143.84;67.87;45085.25;5048638;28;20512;-55
2023/09/11 00:05:30;;;;;;;1.60;1.50;;;;;;;-143.84;67.81;45075.72;5048352;28;20473;-55
2023/09/11 00:07:57;;;;;;;7.00;1.67;;;;;;;-143.84;67.85;45070.00;5048633;28;20517;-55
2023/09/11 00:10:26;;;;;;;2.03;1.60;;;;;;;-143.84;67.93;45098.56;5048615;28;21041;-55
2023/09/11 00:12:53;;;;;;;2.10;1.30;;;;;;;-143.84;67.95;45056.69;5048864;28;20507;-55
2023/09/11 00:15:20;;;;;;;6.03;1.90;;;;;;;-143.84;67.76;45077.63;5048762;28;20439;-55
2023/09/11 00:17:47;;;;;;;1.27;1.17;;;;;;;-143.84;67.59;45070.00;5052770;28;21366;-55
2023/09/11 00:20:14;;;;;;;1.67;1.57;;;;;;;-143.84;67.58;45081.44;5052657;28;20505;-55
2023/09/11 00:22:41;;;;;;;5.97;1.37;;;;;;;-143.84;67.61;45077.63;5052561;28;20456;-55
2023/09/11 00:25:09;;;;;;;1.63;1.20;;;;;;;-143.84;67.41;45085.25;5052542;28;20448;-55
2023/09/11 00:27:38;;;;;;;1.57;1.30;;;;;;;-143.84;67.68;45077.63;5052598;28;21019;-55
2023/09/11 00:30:06;;;;;;;2.23;1.60;;;;;;;-143.84;67.89;45049.06;5052381;28;20531;-55
2023/09/11 00:32:33;;;;;;;1.20;1.10;;;;;;;-143.84;68.02;45066.22;5052307;28;20441;-55
2023/09/11 00:35:00;;;;;;;2.83;1.20;;;;;;;-143.84;67.95;45090.97;5052195;28;20441;-55
2023/09/11 00:37:27;;;;;;;2.83;1.80;;;;;;;-143.84;68.18;45075.72;5052105;28;20441;-55
2023/09/11 00:39:54;;;;;;;1.30;1.20;;;;;;;-143.84;68.34;45077.63;5052190;28;20437;-55
2023/09/11 00:42:22;;;;;;;1.20;1.10;;;;;;;-143.84;68.23;45068.13;5051940;28;20441;-55
2023/09/11 00:44:50;;;;;;;4.03;1.23;;;;;;;-143.84;68.24;45081.44;5051773;28;20446;-55
2023/09/11 00:47:17;;;;;;;1.20;1.10;;;;;;;-143.84;68.60;45094.78;5051744;28;20488;-55
2023/09/11 00:49:45;;;;;;;4.50;1.37;;;;;;;-143.84;68.61;45094.78;5051187;28;20870;-54
2023/09/11 00:52:12;;;;;;;1.53;1.27;;;;;;;-143.84;68.71;45068.13;5051014;28;20471;-55
2023/09/11 00:54:39;;;;;;;1.20;1.10;;;;;;;-143.84;68.44;45070.00;5051844;28;20943;-55
2023/09/11 00:57:08;;;;;;;4.70;1.40;;;;;;;-143.84;68.15;45108.09;5051584;28;20459;-55
2023/09/11 00:59:35;;;;;;;3.87;1.30;;;;;;;-143.84;68.22;45070.00;5051236;28;20485;-55
2023/09/11 01:02:04;;;;;;;1.67;1.30;;;;;;;-143.84;68.12;45102.38;5051449;28;20536;-55
2023/09/11 01:04:32;;;;;;;1.77;1.40;;;;;;;-143.84;68.27;45070.00;5051573;28;20932;-55
2023/09/11 01:07:00;;;;;;;8.70;1.30;;;;;;;-143.84;68.03;45077.63;5051266;28;21026;-55
2023/09/11 01:09:27;;;;;;;4.23;1.70;;;;;;;-143.84;68.01;45085.25;5051521;28;20991;-55
2023/09/11 01:11:54;;;;;;;3.47;1.47;;;;;;;-143.84;67.98;45064.31;5051489;28;20445;-55
2023/09/11 01:14:21;;;;;;;1.30;1.03;;;;;;;-143.84;67.72;45089.06;5051229;28;20511;-55
2023/09/11 01:16:57;;;;;;;1.93;1.43;;;;;;;-143.84;67.84;45070.00;5051345;28;20460;-55
2023/09/11 01:19:42;;;;;;;7.70;1.30;;;;;;;-143.84;68.07;45083.34;5051589;28;20428;-55
2023/09/11 01:22:27;;;;;;;1.20;1.10;;;;;;;-143.84;68.02;45071.91;5051345;28;20492;-55
2023/09/11 01:25:16;;;;;;;3.40;1.57;;;;;;;-143.84;68.19;45075.72;5051204;28;20539;-55
2023/09/11 01:28:01;;;;;;;4.53;1.70;;;;;;;-143.84;68.43;45079.53;5049925;28;20556;-55
2023/09/11 01:30:30;;;;;;;3.23;1.30;;;;;;;-143.84;68.47;45119.53;5051040;28;20448;-55
2023/09/11 01:32:57;;;;;;;1.60;1.17;;;;;;;-143.84;68.37;45070.00;5050972;28;20854;-55
2023/09/11 01:35:25;;;;;;;1.33;1.23;;;;;;;-143.84;68.40;45089.06;5051066;28;21241;-55
2023/09/11 01:37:54;;;;;;;2.47;1.40;;;;;;;-143.84;68.49;45092.88;5051067;28;20965;-55
2023/09/11 01:40:25;;;;;;;9.20;1.60;;;;;;;-143.84;68.75;45079.53;5050772;28;20958;-55
2023/09/11 01:42:56;;;;;;;5.40;2.13;;;;;;;-143.84;69.40;45085.25;5050981;28;20437;-55
2023/09/11 01:45:24;;;;;;;6.07;1.70;;;;;;;-143.84;69.57;45066.22;5050751;28;20443;-55
2023/09/11 01:47:54;;;;;;;1.90;1.30;;;;;;;-143.84;70.01;45106.19;5049790;28;20488;-55
2023/09/11 01:50:23;;;;;;;3.30;1.30;;;;;;;-143.84;70.12;45085.25;5050244;28;20452;-55
2023/09/11 01:52:51;;;;;;;4.80;1.50;;;;;;;-143.84;70.56;45085.25;5050514;28;20834;-55
2023/09/11 01:55:18;;;;;;;2.27;1.13;;;;;;;-143.84;70.83;45083.34;5050844;28;20472;-55
2023/09/11 01:57:45;;;;;;;7.90;1.60;;;;;;;-143.84;70.46;45102.38;5050529;28;20469;-55
2023/09/11 02:00:13;;;;;;;2.20;1.30;;;;;;;-143.84;70.57;45089.06;5050306;28;20536;-55
2023/09/11 02:02:40;;;;;;;2.57;1.60;;;;;;;-143.84;70.66;45090.97;5050593;28;20452;-55
2023/09/11 02:05:10;;;;;;;4.30;1.30;;;;;;;-143.84;70.98;45092.88;5050276;28;20458;-55
2023/09/11 02:07:37;;;;;;;2.00;1.30;;;;;;;-143.84;71.07;45066.22;5050124;28;20486;-55
2023/09/11 02:10:05;;;;;;;1.97;1.50;;;;;;;-143.84;70.93;45071.91;5050634;28;20440;-55
2023/09/11 02:12:32;;;;;;;2.53;1.57;;;;;;;-143.84;71.23;45073.81;5050564;28;20444;-55
2023/09/11 02:14:59;;;;;;;1.80;1.37;;;;;;;-143.84;71.19;45087.16;5050397;28;20451;-55
2023/09/11 02:17:26;;;;;;;1.93;1.47;;;;;;;-143.84;71.08;45087.16;5049875;28;20822;-55
2023/09/11 02:19:54;;;;;;;1.60;1.50;;;;;;;-143.84;70.77;45094.78;5050527;28;20439;-55
2023/09/11 02:22:22;;;;;;;1.37;1.27;;;;;;;-143.84;70.70;45087.16;5050459;28;20970;-55
2023/09/11 02:24:49;;;;;;;1.50;1.17;;;;;;;-143.84;70.71;45081.44;5050065;28;20452;-55
2023/09/11 02:27:16;;;;;;;1.40;1.10;;;;;;;-143.84;70.73;45079.53;5050152;28;20905;-55
2023/09/11 02:29:43;;;;;;;1.70;1.40;;;;;;;-143.84;70.94;45085.25;5050389;28;20441;-55
2023/09/11 02:32:10;;;;;;;1.90;1.30;;;;;;;-143.84;71.02;45094.78;5050026;28;20441;-55
2023/09/11 02:34:38;;;;;;;4.40;2.00;;;;;;;-143.84;71.14;45096.66;5049964;28;20441;-55
2023/09/11 02:37:07;;;;;;;2.60;1.10;;;;;;;-143.84;71.13;45100.47;5049923;28;20447;-55
2023/09/11 02:39:38;;;;;;;2.07;1.47;;;;;;;-143.84;71.33;45090.97;5048822;28;20448;-53
2023/09/11 02:42:06;;;;;;;1.57;1.43;;;;;;;-143.84;71.19;45094.78;5049024;28;20576;-53
2023/09/11 02:44:33;;;;;;;1.30;1.20;;;;;;;-143.84;71.27;45092.88;5048634;28;20482;-53
2023/09/11 02:47:00;;;;;;;4.50;1.47;;;;;;;-143.84;71.37;45079.53;5048930;28;20489;-53
2023/09/11 02:49:27;;;;;;;2.17;1.23;;;;;;;-143.84;71.48;45077.63;5049237;28;20441;-53
2023/09/11 02:51:55;;;;;;;4.40;1.70;;;;;;;-143.84;71.17;45092.88;5049475;28;20464;-53
2023/09/11 02:54:22;;;;;;;6.70;1.53;;;;;;;-143.84;71.27;45100.47;5049363;28;20527;-53
2023/09/11 02:56:51;;;;;;;2.87;1.30;;;;;;;-143.84;71.23;45106.19;5049450;28;20457;-53
2023/09/11 02:59:18;;;;;;;4.47;1.50;;;;;;;-143.84;70.98;45090.97;5048885;28;20488;-53
2023/09/11 03:01:46;;;;;;;3.93;1.17;;;;;;;-143.84;71.04;45073.81;5049107;28;20448;-53
2023/09/11 03:04:13;;;;;;;1.53;1.37;;;;;;;-143.84;71.16;45087.16;5048828;28;20538;-53
2023/09/11 03:06:40;;;;;;;3.70;1.40;;;;;;;-143.84;71.25;45110.00;5049024;28;20490;-53
2023/09/11 03:09:07;;;;;;;2.80;1.37;;;;;;;-143.84;71.71;45092.88;5048781;28;20445;-53
2023/09/11 03:11:34;;;;;;;6.23;1.50;;;;;;;-143.84;71.71;45089.06;5049228;28;21113;-53
2023/09/11 03:14:03;;;;;;;4.50;1.50;;;;;;;-143.84;71.39;45110.00;5048872;28;20452;-53
2023/09/11 03:16:30;;;;;;;10.20;1.80;;;;;;;-143.84;71.30;45096.66;5049044;28;20444;-53
2023/09/11 03:18:57;;;;;;;2.53;1.37;;;;;;;-143.84;71.41;45121.44;5048898;28;20456;-53
2023/09/11 03:21:24;;;;;;;4.20;1.30;;;;;;;-143.84;71.82;45106.19;5048605;28;20440;-53
2023/09/11 03:23:51;;;;;;;2.90;2.10;;;;;;;-143.84;72.00;45090.97;5048635;28;20448;-53
2023/09/11 03:26:19;;;;;;;1.60;1.50;;;;;;;-143.84;72.37;45092.88;5048790;28;20438;-53
2023/09/11 03:28:49;;;;;;;3.00;1.20;;;;;;;-143.84;72.43;45081.44;5048546;28;20823;-53
2023/09/11 03:31:17;;;;;;;2.23;1.60;;;;;;;-143.84;72.65;45100.47;5048701;28;20500;-53
2023/09/11 03:33:45;;;;;;;2.17;1.20;;;;;;;-143.84;72.78;45083.34;5048664;28;20439;-53
2023/09/11 03:36:15;;;;;;;3.67;1.20;;;;;;;-143.84;72.79;45075.72;5048464;28;20445;-53
2023/09/11 03:38:42;;;;;;;2.90;1.50;;;;;;;-143.84;73.30;45106.19;5048726;28;20459;-53
2023/09/11 03:41:09;;;;;;;9.80;1.67;;;;;;;-143.84;73.67;45077.63;5053667;28;20455;-53
2023/09/11 03:43:36;;;;;;;1.73;1.63;;;;;;;-143.84;73.82;45087.16;5067886;28;20448;-53
2023/09/11 03:46:03;;;;;;;1.80;1.70;;;;;;;-143.84;73.53;45110.00;5068297;28;20454;-52
2023/09/11 03:48:32;;;;;;;5.50;1.90;;;;;;;-143.84;73.71;45094.78;5068446;28;20494;-53
2023/09/11 03:50:59;;;;;;;2.77;1.90;;;;;;;-143.84;74.11;45075.72;5067985;28;20505;-53
2023/09/11 03:53:26;;;;;;;6.03;1.50;;;;;;;-143.84;74.07;45083.34;5067789;28;20458;-53
2023/09/11 03:55:53;;;;;;;4.53;1.70;;;;;;;-143.84;74.06;45089.06;5068223;28;21284;-53
2023/09/11 03:58:20;;;;;;;1.83;1.73;;;;;;;-143.84;74.43;45077.63;5068292;28;20459;-53
2023/09/11 04:00:48;;;;;;;1.60;1.50;;;;;;;-143.84;74.69;45094.78;5062025;28;20478;-53
2023/09/11 04:03:15;;;;;;;2.83;1.57;;;;;;;-143.84;74.66;45108.09;5056699;28;20450;-53
2023/09/11 04:05:43;;;;;;;2.13;1.93;;;;;;;-143.84;75.04;45110.00;5064378;28;20458;-54
2023/09/11 04:08:10;;;;;;;6.83;1.80;;;;;;;-143.84;75.11;45123.34;5068629;28;20982;-55
2023/09/11 04:10:37;;;;;;;2.13;1.60;;;;;;;-143.84;75.23;45102.38;5069030;28;20441;-55
2023/09/11 04:13:05;;;;;;;1.90;1.63;;;;;;;-143.84;74.96;45096.66;5068445;28;20436;-55
2023/09/11 04:15:32;;;;;;;1.60;1.50;;;;;;;-143.84;75.12;45125.22;5068579;28;20456;-55
2023/09/11 04:17:59;;;;;;;4.20;1.80;;;;;;;-143.84;75.21;45110.00;5068447;28;20559;-55
2023/09/11 04:20:29;;;;;;;5.07;1.90;;;;;;;-143.84;75.24;45111.91;5068413;28;20983;-55
2023/09/11 04:22:57;;;;;;;1.60;1.50;;;;;;;-143.84;75.08;45106.19;5068622;28;20476;-55
2023/09/11 04:25:24;;;;;;;2.67;1.80;;;;;;;-143.84;75.04;45125.22;5068450;28;20443;-55
2023/09/11 04:27:51;;;;;;;2.43;1.50;;;;;;;-143.84;75.08;45110.00;5068124;28;20477;-55
2023/09/11 04:30:18;;;;;;;2.23;1.30;;;;;;;-143.84;75.13;45106.19;5068336;28;20845;-55
2023/09/11 04:32:46;;;;;;;1.83;1.70;;;;;;;-143.84;75.22;45100.47;5068377;28;20434;-55
2023/09/11 04:35:13;;;;;;;1.37;1.23;;;;;;;-143.84;74.94;45098.56;5068224;28;20442;-55
2023/09/11 04:37:40;;;;;;;10.10;1.97;;;;;;;-143.84;74.72;45089.06;5068195;28;20951;-55
2023/09/11 04:40:09;;;;;;;4.20;1.77;;;;;;;-143.84;74.57;45121.44;5067461;28;20507;-55
2023/09/11 04:42:37;;;;;;;3.37;1.67;;;;;;;-143.84;73.76;45096.66;5067531;28;20462;-55
2023/09/11 04:45:06;;;;;;;2.63;1.30;;;;;;;-143.84;72.52;45075.72;5068008;28;20439;-55
2023/09/11 04:47:33;;;;;;;4.30;1.40;;;;;;;-143.84;71.21;45100.47;5068193;28;20479;-55
2023/09/11 04:50:00;;;;;;;3.23;1.57;;;;;;;-143.84;70.07;45075.72;5068073;28;20444;-55
2023/09/11 04:52:27;;;;;;;2.50;1.20;;;;;;;-143.84;68.66;45094.78;5067920;28;20494;-55
2023/09/11 04:54:54;;;;;;;1.70;1.60;;;;;;;-143.84;66.61;45098.56;5067812;28;20852;-55
2023/09/11 04:57:23;;;;;;;5.00;1.77;;;;;;;-143.84;63.68;45056.69;5067828;28;20535;-55
2023/09/11 04:59:50;;;;;;;2.60;1.63;;;;;;;-143.84;61.67;45090.97;5067837;28;20473;-55
2023/09/11 05:02:17;;;;;;;1.67;1.13;;;;;;;-143.84;59.53;45064.31;5069504;28;20447;-55
2023/09/11 05:04:46;;;;;;;1.67;1.50;;;;;;;-143.84;57.44;45052.88;5071404;28;20449;-55
2023/09/11 05:07:13;;;;;;;3.53;1.60;;;;;;;-143.84;55.06;45047.16;5071621;28;20472;-55
2023/09/11 05:09:40;;;;;;;3.63;1.53;;;;;;;-143.84;54.11;45062.41;5071488;28;20945;-55
2023/09/11 05:12:08;;;;;;;2.27;1.30;;;;;;;-143.84;52.43;45041.44;5071574;28;20429;-55
2023/09/11 05:14:36;;;;;;;1.20;1.10;;;;;;;-143.84;51.41;45049.06;5071630;28;20436;-55
2023/09/11 05:17:04;;;;;;;2.47;1.40;;;;;;;-143.84;50.22;45041.44;5071644;28;20453;-55
2023/09/11 05:19:31;;;;;;;4.17;1.53;;;;;;;-143.84;49.38;45047.16;5071228;28;20436;-55
2023/09/11 05:21:59;;;;;;;1.23;0.80;;;;;;;-143.84;48.46;45030.03;5071326;28;20445;-55
2023/09/11 05:24:26;;;;;;;1.57;1.17;;;;;;;-143.84;47.60;45010.97;5071247;28;20893;-55
2023/09/11 05:26:53;;;;;;;5.57;1.00;;;;;;;-143.84;47.06;45016.69;5070970;28;20441;-55
2023/09/11 05:29:20;;;;;;;3.10;1.53;;;;;;;-143.84;46.71;45024.31;5071393;28;20444;-55
2023/09/11 05:31:49;;;;;;;1.93;1.30;;;;;;;-143.84;45.95;44997.66;5071433;28;20980;-55
2023/09/11 05:34:16;;;;;;;1.20;1.03;;;;;;;-143.84;45.55;45024.31;5071416;28;20436;-55
2023/09/11 05:36:43;;;;;;;1.40;1.27;;;;;;;-143.84;45.38;45007.19;5071123;28;20444;-55
2023/09/11 05:39:10;;;;;;;1.80;1.70;;;;;;;-143.84;44.86;44978.63;5070576;28;20494;-55
2023/09/11 05:41:38;;;;;;;4.13;1.70;;;;;;;-143.84;44.55;45026.22;5070285;28;20445;-55
2023/09/11 05:44:05;;;;;;;3.77;1.60;;;;;;;-143.84;44.16;45033.84;5070362;28;20434;-55
2023/09/11 05:46:32;;;;;;;4.10;1.83;;;;;;;-143.84;44.03;45026.22;5071037;28;20469;-55
2023/09/11 05:49:01;;;;;;;3.60;2.13;;;;;;;-143.84;43.83;45016.69;5071087;28;20483;-55
2023/09/11 05:51:28;;;;;;;3.03;2.00;;;;;;;-143.84;43.64;44984.31;5071008;28;20497;-55
2023/09/11 05:53:55;;;;;;;4.57;2.77;;;;;;;-143.84;43.47;45016.69;5070748;28;20859;-55
2023/09/11 05:56:22;;;;;;;4.80;2.80;;;;;;;-143.84;43.20;44995.75;5070564;28;20452;-55
2023/09/11 05:58:49;;;;;;;3.60;3.27;;;;;;;-143.84;43.19;44997.66;5070239;28;20939;-55
2023/09/11 06:01:16;;;;;;;2.83;2.33;;;;;;;-143.84;42.88;45005.28;5070544;28;20444;-55
2023/09/11 06:03:44;;;;;;;4.07;2.10;;;;;;;-143.84;42.41;44997.66;5070796;28;20440;-55
2023/09/11 06:06:12;;;;;;;2.77;1.50;;;;;;;-143.84;42.17;44999.56;5070572;28;20440;-55
2023/09/11 06:08:39;;;;;;;2.27;1.60;;;;;;;-143.84;41.97;44999.56;5070346;28;20480;-55
2023/09/11 06:11:07;;;;;;;2.20;1.20;;;;;;;-143.84;41.68;44986.22;5070856;28;20444;-55
2023/09/11 06:13:35;;;;;;;4.50;1.20;;;;;;;-143.84;41.28;45009.09;5069869;28;20765;-55
2023/09/11 06:16:03;;;;;;;1.87;1.03;;;;;;;-143.84;41.18;45012.88;5070464;28;20910;-55
2023/09/11 06:18:30;;;;;;;1.63;0.97;;;;;;;-143.84;41.17;44982.41;5070152;28;20452;-55
2023/09/11 06:20:57;;;;;;;3.10;1.13;;;;;;;-143.84;40.85;44988.13;5070270;28;20440;-55
2023/09/11 06:23:25;;;;;;;4.67;1.20;;;;;;;-143.84;40.12;44991.94;5070254;28;20494;-55
2023/09/11 06:25:52;;;;;;;2.50;1.20;;;;;;;-143.84;40.46;44990.03;5070650;28;20440;-55
2023/09/11 06:28:20;;;;;;;2.17;1.20;;;;;;;-143.84;39.60;45026.22;5070008;28;20481;-55
2023/09/11 06:30:47;;;;;;;1.20;1.00;;;;;;;-143.84;39.73;44986.22;5069636;28;20811;-55
2023/09/11 06:33:14;;;;;;;6.00;1.10;;;;;;;-143.84;39.39;44969.09;5069935;28;20510;-55
2023/09/11 06:35:41;;;;;;;3.10;1.27;;;;;;;-143.84;39.60;45001.47;5069830;28;20510;-55
2023/09/11 06:38:08;;;;;;;2.33;0.90;;;;;;;-143.84;39.22;44991.94;5069544;28;20954;-55
2023/09/11 06:40:37;;;;;;;1.30;0.80;;;;;;;-143.84;38.86;44971.00;5069847;28;20440;-55
2023/09/11 06:43:04;;;;;;;4.03;0.93;;;;;;;-143.84;38.90;44997.66;5069941;28;20531;-55
2023/09/11 06:45:33;;;;;;;1.97;0.90;;;;;;;-143.84;38.33;44963.38;5069439;28;20429;-55
2023/09/11 06:48:00;;;;;;;2.73;0.90;;;;;;;-143.84;38.35;44986.22;5068350;28;20480;-55
2023/09/11 06:50:29;;;;;;;1.83;1.30;;;;;;;-143.84;38.42;44980.53;5069039;28;20449;-55
2023/09/11 06:52:56;;;;;;;2.37;1.33;;;;;;;-143.84;38.31;44972.91;5069048;28;20473;-55
2023/09/11 06:55:23;;;;;;;1.60;1.07;;;;;;;-143.84;38.49;44976.72;5069473;28;20449;-55
2023/09/11 06:58:02;;;;;;;2.63;1.13;;;;;;;-143.84;37.96;44974.81;5069434;28;20448;-56
2023/09/11 07:00:29;;;;;;;1.40;1.07;;;;;;;-143.84;37.96;44948.16;5068611;28;20480;-56
2023/09/11 07:02:56;;;;;;;2.50;1.33;;;;;;;-143.84;37.97;44950.06;5068822;28;20444;-56
2023/09/11 07:05:25;;;;;;;7.43;1.10;;;;;;;-143.84;37.45;44951.97;5068750;28;20536;-56
2023/09/11 07:07:53;;;;;;;3.83;0.87;;;;;;;-143.84;36.58;44959.56;5068687;28;20476;-56
2023/09/11 07:10:20;;;;;;;1.20;1.10;;;;;;;-143.84;37.16;44969.09;5068633;28;20882;-56
2023/09/11 07:12:49;;;;;;;2.60;1.00;;;;;;;-143.84;36.42;44963.38;5068723;28;20440;-56
2023/09/11 07:15:18;;;;;;;3.90;1.70;;;;;;;-143.84;35.77;44934.81;5068179;28;20951;-56
2023/09/11 07:17:48;;;;;;;3.00;1.30;;;;;;;-143.84;36.12;44969.09;5068146;28;20445;-56
2023/09/11 07:20:17;;;;;;;8.73;0.93;;;;;;;-143.84;34.91;44976.72;5068313;28;20441;-56
2023/09/11 07:22:44;;;;;;;1.57;0.77;;;;;;;-143.84;34.18;44929.09;5068415;28;20540;-56
2023/09/11 07:25:14;;;;;;;1.30;0.90;;;;;;;-143.84;35.78;44953.88;5067333;28;20821;-56
2023/09/11 07:27:41;;;;;;;1.20;1.00;;;;;;;-143.84;35.59;44972.91;5068399;28;20549;-56
2023/09/11 07:30:09;;;;;;;1.70;0.90;;;;;;;-143.84;34.34;44961.47;5068816;28;20855;-56
2023/09/11 07:32:38;;;;;;;2.93;0.73;;;;;;;-143.84;35.11;44972.91;5068529;28;20505;-57
2023/09/11 07:35:06;;;;;;;7.70;1.33;;;;;;;-143.84;34.07;44967.19;5068434;28;20474;-53
2023/09/11 07:37:33;;;;;;;3.73;1.00;;;;;;;-143.84;34.59;44955.75;5068633;28;20472;-52
2023/09/11 07:40:01;;;;;;;1.47;1.10;;;;;;;-143.84;34.34;44932.91;5064489;28;20539;-53
2023/09/11 07:42:28;;;;;;;1.40;1.30;;;;;;;-143.84;34.41;44940.53;5057342;28;20453;-53
2023/09/11 07:44:55;;;;;;;2.60;0.90;;;;;;;-143.84;33.14;44921.50;5068078;28;21298;-53
2023/09/11 07:47:22;;;;;;;10.83;1.40;;;;;;;-143.84;33.41;44934.81;5068467;28;20440;-53
2023/09/11 07:49:51;;;;;;;3.10;1.60;;;;;;;-143.84;33.53;44957.66;5067942;28;20480;-53
2023/09/11 07:52:18;;;;;;;2.20;1.30;;;;;;;-143.84;33.53;44951.97;5068196;28;20818;-53
2023/09/11 07:54:45;;;;;;;1.43;1.07;;;;;;;-143.84;33.23;44948.16;5068677;28;20445;-53
2023/09/11 07:57:12;;;;;;;4.00;1.57;;;;;;;-143.84;33.42;44946.25;5068248;28;20429;-53
2023/09/11 07:59:40;;;;;;;3.40;1.10;;;;;;;-143.84;33.17;44936.72;5067545;28;20565;-52
2023/09/11 08:02:07;;;;;;;5.27;1.07;;;;;;;-143.84;33.91;44946.25;5068451;28;20464;-52
2023/09/11 08:04:35;;;;;;;2.20;1.23;;;;;;;-143.84;34.42;44932.91;5068452;28;20429;-52
2023/09/11 08:07:05;;;;;;;1.50;1.20;;;;;;;-143.84;34.81;44942.44;5068117;28;20487;-53
2023/09/11 08:09:32;;;;;;;3.20;1.10;;;;;;;-143.84;34.00;44972.91;5068191;28;20507;-52
2023/09/11 08:12:00;;;;;;;1.63;1.10;;;;;;;-143.84;33.89;44942.44;5058925;28;20461;-53
2023/09/11 08:14:27;;;;;;;3.57;1.10;;;;;;;-143.84;33.97;44980.53;5066266;28;20449;-52
2023/09/11 08:16:54;;;;;;;5.43;1.37;;;;;;;-143.84;33.73;44957.66;5068017;28;20441;-53
2023/09/11 08:19:21;;;;;;;4.03;1.10;;;;;;;-143.84;34.83;44953.88;5068155;28;20445;-53
2023/09/11 08:21:48;;;;;;;2.73;1.50;;;;;;;-143.84;34.30;44963.38;5068143;28;20433;-53
2023/09/11 08:24:17;;;;;;;1.20;1.10;;;;;;;-143.84;33.43;44946.25;5067584;28;20950;-54
2023/09/11 08:26:44;;;;;;;6.73;1.27;;;;;;;-143.84;33.29;44953.88;5068092;28;20526;-54
2023/09/11 08:29:14;;;;;;;2.20;1.20;;;;;;;-143.84;33.81;44951.97;5067919;28;21443;-54
2023/09/11 08:31:41;;;;;;;2.17;1.30;;;;;;;-143.84;33.23;44931.00;5067949;28;20545;-53
2023/09/11 08:34:09;;;;;;;4.03;1.00;;;;;;;-143.84;33.23;44944.34;5067805;28;20435;-54
2023/09/11 08:36:36;;;;;;;1.80;0.90;;;;;;;-143.84;33.59;44955.75;5068204;28;20440;-54
2023/09/11 08:39:04;;;;;;;4.43;1.40;;;;;;;-143.84;34.54;44965.28;5071552;28;20453;-53
2023/09/11 08:41:33;;;;;;;1.83;1.17;;;;;;;-143.84;33.77;44927.19;5071491;28;20448;-54
2023/09/11 08:44:00;;;;;;;4.63;1.50;;;;;;;-143.84;32.92;44955.75;5071500;28;20452;-53
2023/09/11 08:46:32;;;;;;;5.73;1.30;;;;;;;-143.84;35.64;44931.00;5071253;28;20954;-54
2023/09/11 08:49:00;;;;;;;1.47;1.17;;;;;;;-143.84;33.43;44923.41;5071161;28;20491;-54
2023/09/11 08:51:33;;;;;;;5.30;1.57;;;;;;;-143.84;32.84;44957.66;5071462;28;20472;-54
2023/09/11 08:54:04;;;;;;;3.40;1.40;;;;;;;-143.84;33.74;44969.09;5071378;28;20437;-54
2023/09/11 08:56:33;;;;;;;4.30;1.40;;;;;;;-143.84;33.89;44978.63;5071407;28;20433;-54
2023/09/11 08:59:02;;;;;;;1.50;1.20;;;;;;;-143.84;33.33;44929.09;5071173;28;20452;-54
2023/09/11 09:01:30;;;;;;;7.03;1.93;;;;;;;-143.84;33.37;44942.44;5071167;28;20540;-54
2023/09/11 09:03:59;;;;;;;9.20;1.80;;;;;;;-143.84;32.75;44915.78;5070954;28;20970;-54
2023/09/11 09:06:28;;;;;;;2.90;2.00;;;;;;;-143.84;32.77;44940.53;5071029;28;20433;-54
2023/09/11 09:08:55;;;;;;;2.00;1.90;;;;;;;-143.84;33.56;44942.44;5071136;28;20562;-54
2023/09/11 09:11:24;;;;;;;4.03;1.53;;;;;;;-143.84;34.20;44938.63;5070998;28;20440;-54
2023/09/11 09:13:52;;;;;;;2.67;1.70;;;;;;;-143.84;34.58;44910.06;5070932;28;20460;-54
2023/09/11 09:16:19;;;;;;;2.20;2.00;;;;;;;-143.84;33.94;44957.66;5070876;28;20445;-54
2023/09/11 09:18:50;;;;;;;5.63;2.33;;;;;;;-143.84;33.84;44929.09;5070810;28;20443;-54
2023/09/11 09:21:18;;;;;;;1.87;1.77;;;;;;;-143.84;34.02;44953.88;5070804;28;20984;-54
2023/09/11 09:23:46;;;;;;;2.20;1.90;;;;;;;-143.84;34.34;44950.06;5070885;28;20441;-54
2023/09/11 09:26:13;;;;;;;6.40;2.27;;;;;;;-143.84;34.34;44959.56;5070775;28;20436;-54
2023/09/11 09:28:45;;;;;;;2.90;2.20;;;;;;;-143.84;34.08;44938.63;5070774;28;20476;-54
2023/09/11 09:31:22;;;;;;;2.23;2.00;;;;;;;-143.84;34.25;44908.16;5070649;28;20530;-54
2023/09/11 09:33:53;;;;;;;6.30;2.73;;;;;;;-143.84;34.99;44946.25;5070798;28;20451;-54
2023/09/11 09:36:20;;;;;;;2.00;1.80;;;;;;;-143.84;34.00;44969.09;5070569;28;21013;-54
2023/09/11 09:38:47;;;;;;;3.70;2.33;;;;;;;-143.84;34.40;44921.50;5070515;28;20461;-54
2023/09/11 09:41:16;;;;;;;5.20;2.10;;;;;;;-143.84;34.25;44951.97;5070452;28;20429;-54
2023/09/11 09:43:53;;;;;;;8.40;2.80;;;;;;;-143.84;34.17;44931.00;5070571;28;20440;-54
2023/09/11 09:46:22;;;;;;;2.90;2.20;;;;;;;-143.84;34.21;44982.41;5070414;28;20490;-54
2023/09/11 09:48:49;;;;;;;2.60;2.20;;;;;;;-143.84;34.32;44934.81;5069136;28;20472;-54
2023/09/11 09:51:17;;;;;;;2.33;2.13;;;;;;;-143.84;34.57;44976.72;5070188;28;20437;-54
2023/09/11 09:53:46;;;;;;;2.43;2.23;;;;;;;-143.84;34.62;44931.00;5070238;28;20444;-54
2023/09/11 09:56:15;;;;;;;7.03;2.07;;;;;;;-143.84;35.20;44919.59;5070216;28;20814;-54
2023/09/11 09:58:44;;;;;;;5.90;2.10;;;;;;;-143.84;35.13;44931.00;5060957;28;20828;-54
2023/09/11 10:01:12;;;;;;;2.33;2.10;;;;;;;-143.84;35.42;44934.81;5058463;28;20445;-54
2023/09/11 10:03:43;;;;;;;3.10;2.20;;;;;;;-143.84;35.57;44942.44;5058777;28;20442;-54
2023/09/11 10:06:11;;;;;;;3.83;2.00;;;;;;;-143.84;35.24;44944.34;5050138;28;20434;-54
2023/09/11 10:08:38;;;;;;;3.47;2.50;;;;;;;-143.84;35.47;44934.81;5049912;28;20482;-54
2023/09/11 10:11:05;;;;;;;5.67;1.90;;;;;;;-143.84;35.28;44950.06;5050130;28;20441;-54
2023/09/11 10:13:36;;;;;;;8.10;2.17;;;;;;;-143.84;35.79;44955.75;5050207;28;20430;-54
2023/09/11 10:16:04;;;;;;;2.67;1.93;;;;;;;-143.84;36.66;44967.19;5049366;28;20438;-54
2023/09/11 10:18:34;;;;;;;3.20;1.87;;;;;;;-143.84;35.96;44963.38;5051421;28;20448;-54
2023/09/11 10:21:03;;;;;;;1.97;1.77;;;;;;;-143.84;36.04;44957.66;5058560;28;20458;-54
2023/09/11 10:23:30;;;;;;;3.30;2.20;;;;;;;-143.84;35.80;44946.25;5049594;28;20442;-54
2023/09/11 10:26:03;;;;;;;6.50;2.10;;;;;;;-143.84;36.21;44965.28;5049885;28;20422;-54
2023/09/11 10:28:34;;;;;;;3.93;2.10;;;;;;;-143.84;36.13;44963.38;5049654;28;20862;-54
2023/09/11 10:31:09;;;;;;;3.70;1.70;;;;;;;-143.84;36.56;44934.81;5049451;28;20926;-54
2023/09/11 10:33:37;;;;;;;3.70;1.63;;;;;;;-143.84;36.27;44957.66;5068982;28;20505;-54
2023/09/11 10:36:13;;;;;;;2.53;1.80;;;;;;;-143.84;36.28;44972.91;5069435;28;20506;-54
2023/09/11 10:38:43;;;;;;;2.43;1.73;;;;;;;-143.84;36.98;44957.66;5069513;28;20839;-54
2023/09/11 10:41:10;;;;;;;6.13;1.83;;;;;;;-143.84;37.11;44974.81;5069299;28;20443;-54
2023/09/11 10:43:37;;;;;;;5.53;1.70;;;;;;;-143.84;37.26;44946.25;5069183;28;20441;-54
2023/09/11 10:46:16;;;;;;;4.13;1.70;;;;;;;-143.84;37.26;44942.44;5069229;28;20437;-54
2023/09/11 10:48:43;;;;;;;5.63;2.00;;;;;;;-143.84;37.44;44951.97;5069547;28;20433;-54
2023/09/11 10:51:13;;;;;;;3.23;2.00;;;;;;;-143.84;37.07;44967.19;5069027;28;20445;-54
2023/09/11 10:53:41;;;;;;;7.63;1.73;;;;;;;-143.84;37.28;44950.06;5069058;28;20981;-54
2023/09/11 10:56:09;;;;;;;4.03;1.60;;;;;;;-143.84;36.72;44938.63;5069207;28;20445;-54
2023/09/11 10:58:37;;;;;;;2.93;1.50;;;;;;;-143.84;36.45;44963.38;5068855;28;20570;-54
2023/09/11 11:01:05;;;;;;;2.27;1.40;;;;;;;-143.84;36.32;44950.06;5068731;28;20547;-54
2023/09/11 11:03:34;;;;;;;8.40;1.97;;;;;;;-143.84;37.13;44976.72;5069171;28;21353;-54
2023/09/11 11:06:02;;;;;;;8.50;1.97;;;;;;;-143.84;36.97;44974.81;5069095;28;20441;-54
2023/09/11 11:08:34;;;;;;;3.47;1.90;;;;;;;-143.84;36.90;44982.41;5068837;28;20433;-54
2023/09/11 11:11:02;;;;;;;2.47;1.53;;;;;;;-143.84;37.45;44927.19;5068722;28;20441;-54
2023/09/11 11:13:30;;;;;;;9.67;1.90;;;;;;;-143.84;36.83;44972.91;5068732;28;20437;-54
2023/09/11 11:16:24;;;;;;;3.20;1.50;;;;;;;-143.84;36.73;44978.63;5068628;28;20447;-54
2023/09/11 11:18:54;;;;;;;9.90;1.63;;;;;;;-143.84;37.10;44961.47;5068638;28;20510;-54
2023/09/11 11:21:21;;;;;;;2.60;1.57;;;;;;;-143.84;36.67;44961.47;5068999;28;20521;-54